Estación Meteorológica Peña el Pijo (Robertgarden) [ 08/20/17 13:43:46 CEST ]

Fecha Hora Presion(HPa) Temp (°C) Humedad % Rocio (°C) Viento ( m/s) Direccion Lluvia 1Hora(mm) Lluvia 24H(mm) LLuvia Total(mm)
2017-Jun-29 01:01:17 1006.100 18.4 57 9.7 1.7 W     1427.60
2017-Jun-29 02:09:01 1006.000 - - - - NNW     1427.60
2017-Jun-29 03:01:34 1005.900 16.8 61 9.2         1427.60
2017-Jun-29 04:01:34 1005.500 16.3 60 8.6         1427.60
2017-Jun-29 05:01:36 1005.200 15.2 61 7.7         1427.60
2017-Jun-29 06:01:30 1005.500 13.6 66 7.3         1427.60
2017-Jun-29 07:01:35 1005.800 11.8 70 6.5         1427.60
2017-Jun-29 08:01:39 1005.500 15.2 67 9.1         1427.60
2017-Jun-29 09:01:42 1005.800 15.8 60 8.1         1427.60
2017-Jun-29 10:01:40 1006.400 18.6 50 8.0 0.8 W     1427.60
2017-Jun-29 11:01:37 1006.200 20.6 42 7.2         1427.60
2017-Jun-29 12:01:55 1005.900 23.2 35 6.8         1427.60
2017-Jun-29 13:01:54 1005.900 24.8 29 5.5         1427.60
2017-Jun-29 14:02:01 1005.600 25.9 23 3.0         1427.60
2017-Jun-29 15:01:45 1005.500 26.2 22 2.6         1427.60
2017-Jun-29 16:01:32 1005.700 27.1 22 3.4 1.9 NW     1427.60
2017-Jun-29 17:01:48 1005.000 26.1 21 2.0         1427.60
2017-Jun-29 18:01:53 1004.700 24.4 22 1.2         1427.60
2017-Jun-29 19:01:52 1004.900 21.9 27 1.9         1427.60
2017-Jun-29 20:01:52 1004.800 21.8 27 1.8         1427.60
2017-Jun-29 21:02:45 1005.400 18.9 - - 1.5 N     1427.60
2017-Jun-29 22:01:06 1005.800 17.8 33 1.2         1427.60
2017-Jun-29 23:01:38 1006.700 16.4 35 0.8         1427.60

Temperatura Máxima:27°    Temperatura Mínima:
Presión Máxima:1006.700 Hpa    Presión Mínima:1004.700 Hpa


Volver